sensor_id;sensor_type;location;lat;lon;timestamp;pressure;altitude;pressure_sealevel;temperature
19061;BMP280;9663;48.996;8.334;2022-07-10T00:00:38;100961.84;;;24.84
19061;BMP280;9663;48.996;8.334;2022-07-10T00:03:04;100961.84;;;24.84
19061;BMP280;9663;48.996;8.334;2022-07-10T00:05:32;100961.09;;;24.82
19061;BMP280;9663;48.996;8.334;2022-07-10T00:08:00;100960.34;;;24.80
19061;BMP280;9663;48.996;8.334;2022-07-10T00:10:26;100956.13;;;24.78
19061;BMP280;9663;48.996;8.334;2022-07-10T00:12:54;100953.75;;;24.73
19061;BMP280;9663;48.996;8.334;2022-07-10T00:15:20;100957.38;;;24.71
19061;BMP280;9663;48.996;8.334;2022-07-10T00:17:46;100951.50;;;24.67
19061;BMP280;9663;48.996;8.334;2022-07-10T00:20:14;100950.81;;;24.64
19061;BMP280;9663;48.996;8.334;2022-07-10T00:22:40;100949.28;;;24.60
19061;BMP280;9663;48.996;8.334;2022-07-10T00:25:10;100947.75;;;24.56
19061;BMP280;9663;48.996;8.334;2022-07-10T00:27:36;100949.75;;;24.51
19061;BMP280;9663;48.996;8.334;2022-07-10T00:30:02;100937.94;;;24.46
19061;BMP280;9663;48.996;8.334;2022-07-10T00:32:28;100944.19;;;24.42
19061;BMP280;9663;48.996;8.334;2022-07-10T00:34:54;100940.97;;;24.37
19061;BMP280;9663;48.996;8.334;2022-07-10T00:37:20;100944.50;;;24.36
19061;BMP280;9663;48.996;8.334;2022-07-10T00:39:49;100948.00;;;24.35
19061;BMP280;9663;48.996;8.334;2022-07-10T00:42:15;100945.34;;;24.36
19061;BMP280;9663;48.996;8.334;2022-07-10T00:44:43;100945.34;;;24.36
19061;BMP280;9663;48.996;8.334;2022-07-10T00:47:10;100940.16;;;24.36
19061;BMP280;9663;48.996;8.334;2022-07-10T00:49:38;100935.88;;;24.35
19061;BMP280;9663;48.996;8.334;2022-07-10T00:52:11;100944.41;;;24.37
19061;BMP280;9663;48.996;8.334;2022-07-10T00:54:39;100949.75;;;24.34
19061;BMP280;9663;48.996;8.334;2022-07-10T00:57:07;100944.72;;;24.31
19061;BMP280;9663;48.996;8.334;2022-07-10T00:59:34;100954.44;;;24.26
19061;BMP280;9663;48.996;8.334;2022-07-10T01:02:04;100945.22;;;24.21
19061;BMP280;9663;48.996;8.334;2022-07-10T01:04:31;100943.88;;;24.12
19061;BMP280;9663;48.996;8.334;2022-07-10T01:06:58;100942.50;;;24.05
19061;BMP280;9663;48.996;8.334;2022-07-10T01:09:24;100939.38;;;23.99
19061;BMP280;9663;48.996;8.334;2022-07-10T01:11:50;100945.56;;;23.97
19061;BMP280;9663;48.996;8.334;2022-07-10T01:14:16;100950.94;;;23.92
19061;BMP280;9663;48.996;8.334;2022-07-10T01:16:42;100952.78;;;23.90
19061;BMP280;9663;48.996;8.334;2022-07-10T01:19:08;100946.06;;;23.86
19061;BMP280;9663;48.996;8.334;2022-07-10T01:21:36;100951.47;;;23.82
19061;BMP280;9663;48.996;8.334;2022-07-10T01:24:10;100943.09;;;23.77
19061;BMP280;9663;48.996;8.334;2022-07-10T01:26:37;100943.28;;;23.72
19061;BMP280;9663;48.996;8.334;2022-07-10T01:29:06;100950.38;;;23.69
19061;BMP280;9663;48.996;8.334;2022-07-10T01:31:33;100946.94;;;23.68
19061;BMP280;9663;48.996;8.334;2022-07-10T01:34:00;100946.16;;;23.66
19061;BMP280;9663;48.996;8.334;2022-07-10T01:36:29;100953.09;;;23.66
19061;BMP280;9663;48.996;8.334;2022-07-10T01:38:58;100948.91;;;23.63
19061;BMP280;9663;48.996;8.334;2022-07-10T01:41:25;100963.69;;;23.60
19061;BMP280;9663;48.996;8.334;2022-07-10T01:43:52;100962.22;;;23.55
19061;BMP280;9663;48.996;8.334;2022-07-10T01:46:18;100959.00;;;23.50
19061;BMP280;9663;48.996;8.334;2022-07-10T01:48:44;100959.16;;;23.47
19061;BMP280;9663;48.996;8.334;2022-07-10T01:51:11;100962.78;;;23.43
19061;BMP280;9663;48.996;8.334;2022-07-10T01:53:37;100967.41;;;23.36
19061;BMP280;9663;48.996;8.334;2022-07-10T01:56:08;100968.53;;;23.31
19061;BMP280;9663;48.996;8.334;2022-07-10T01:58:34;100976.50;;;23.26
19061;BMP280;9663;48.996;8.334;2022-07-10T02:01:02;100969.75;;;23.22
19061;BMP280;9663;48.996;8.334;2022-07-10T02:03:27;100973.59;;;23.14
19061;BMP280;9663;48.996;8.334;2022-07-10T02:06:12;100972.19;;;23.07
19061;BMP280;9663;48.996;8.334;2022-07-10T02:08:38;100974.97;;;23.03
19061;BMP280;9663;48.996;8.334;2022-07-10T02:11:03;100978.69;;;22.97
19061;BMP280;9663;48.996;8.334;2022-07-10T02:13:29;100979.66;;;22.95
19061;BMP280;9663;48.996;8.334;2022-07-10T02:15:55;100986.75;;;22.90
19061;BMP280;9663;48.996;8.334;2022-07-10T02:18:22;100987.75;;;22.86
19061;BMP280;9663;48.996;8.334;2022-07-10T02:20:48;100990.53;;;22.81
19061;BMP280;9663;48.996;8.334;2022-07-10T02:23:14;100989.91;;;22.76
19061;BMP280;9663;48.996;8.334;2022-07-10T02:25:40;100985.88;;;22.70
19061;BMP280;9663;48.996;8.334;2022-07-10T02:28:07;100982.59;;;22.66
19061;BMP280;9663;48.996;8.334;2022-07-10T02:30:33;100989.66;;;22.63
19061;BMP280;9663;48.996;8.334;2022-07-10T02:32:59;100986.34;;;22.59
19061;BMP280;9663;48.996;8.334;2022-07-10T02:35:24;100978.78;;;22.55
19061;BMP280;9663;48.996;8.334;2022-07-10T02:37:50;100994.47;;;22.50
19061;BMP280;9663;48.996;8.334;2022-07-10T02:40:16;100989.50;;;22.46
19061;BMP280;9663;48.996;8.334;2022-07-10T02:42:41;100991.44;;;22.41
19061;BMP280;9663;48.996;8.334;2022-07-10T02:45:08;100982.88;;;22.39
19061;BMP280;9663;48.996;8.334;2022-07-10T02:47:34;100983.97;;;22.33
19061;BMP280;9663;48.996;8.334;2022-07-10T02:50:00;100993.59;;;22.30
19061;BMP280;9663;48.996;8.334;2022-07-10T02:52:26;100999.81;;;22.26
19061;BMP280;9663;48.996;8.334;2022-07-10T02:54:52;101006.91;;;22.21
19061;BMP280;9663;48.996;8.334;2022-07-10T02:57:18;101001.84;;;22.18
19061;BMP280;9663;48.996;8.334;2022-07-10T02:59:44;101011.38;;;22.16
19061;BMP280;9663;48.996;8.334;2022-07-10T03:02:10;100996.84;;;22.14
19061;BMP280;9663;48.996;8.334;2022-07-10T03:04:35;100995.13;;;22.13
19061;BMP280;9663;48.996;8.334;2022-07-10T03:07:01;100999.59;;;22.09
19061;BMP280;9663;48.996;8.334;2022-07-10T03:09:27;100997.97;;;22.07
19061;BMP280;9663;48.996;8.334;2022-07-10T03:11:53;101000.56;;;22.07
19061;BMP280;9663;48.996;8.334;2022-07-10T03:14:18;101010.06;;;22.06
19061;BMP280;9663;48.996;8.334;2022-07-10T03:16:44;101009.31;;;22.03
19061;BMP280;9663;48.996;8.334;2022-07-10T03:19:10;101004.28;;;22.00
19061;BMP280;9663;48.996;8.334;2022-07-10T03:21:36;101012.97;;;21.97
19061;BMP280;9663;48.996;8.334;2022-07-10T03:24:01;101011.44;;;21.93
19061;BMP280;9663;48.996;8.334;2022-07-10T03:26:27;101002.88;;;21.91
19061;BMP280;9663;48.996;8.334;2022-07-10T03:28:55;101003.03;;;21.88
19061;BMP280;9663;48.996;8.334;2022-07-10T03:31:21;101010.06;;;21.85
19061;BMP280;9663;48.996;8.334;2022-07-10T03:33:47;101005.72;;;21.86
19061;BMP280;9663;48.996;8.334;2022-07-10T03:36:13;101009.25;;;21.83
19061;BMP280;9663;48.996;8.334;2022-07-10T03:38:39;101011.88;;;21.82
19061;BMP280;9663;48.996;8.334;2022-07-10T03:41:05;101015.38;;;21.81
19061;BMP280;9663;48.996;8.334;2022-07-10T03:43:30;101009.44;;;21.79
19061;BMP280;9663;48.996;8.334;2022-07-10T03:45:57;101006.00;;;21.78
19061;BMP280;9663;48.996;8.334;2022-07-10T03:48:23;101012.91;;;21.78
19061;BMP280;9663;48.996;8.334;2022-07-10T03:50:50;101007.81;;;21.76
19061;BMP280;9663;48.996;8.334;2022-07-10T03:53:17;101009.50;;;21.77
19061;BMP280;9663;48.996;8.334;2022-07-10T03:55:43;101014.66;;;21.77
19061;BMP280;9663;48.996;8.334;2022-07-10T03:58:08;101014.59;;;21.79
19061;BMP280;9663;48.996;8.334;2022-07-10T04:00:34;101017.84;;;21.84
19061;BMP280;9663;48.996;8.334;2022-07-10T04:03:07;101019.50;;;21.85
19061;BMP280;9663;48.996;8.334;2022-07-10T04:05:34;101016.88;;;21.86
19061;BMP280;9663;48.996;8.334;2022-07-10T04:08:02;101023.63;;;21.90
19061;BMP280;9663;48.996;8.334;2022-07-10T04:10:30;101023.53;;;21.91
19061;BMP280;9663;48.996;8.334;2022-07-10T04:12:57;101024.41;;;21.92
19061;BMP280;9663;48.996;8.334;2022-07-10T04:15:23;101022.53;;;21.95
19061;BMP280;9663;48.996;8.334;2022-07-10T04:17:50;101024.97;;;22.00
19061;BMP280;9663;48.996;8.334;2022-07-10T04:20:17;101024.81;;;22.03
19061;BMP280;9663;48.996;8.334;2022-07-10T04:22:43;101019.66;;;22.03
19061;BMP280;9663;48.996;8.334;2022-07-10T04:25:10;101025.69;;;22.03
19061;BMP280;9663;48.996;8.334;2022-07-10T04:27:36;101027.34;;;22.04
19061;BMP280;9663;48.996;8.334;2022-07-10T04:30:03;101028.25;;;22.03
19061;BMP280;9663;48.996;8.334;2022-07-10T04:32:29;101033.53;;;22.00
19061;BMP280;9663;48.996;8.334;2022-07-10T04:34:55;101021.56;;;21.98
19061;BMP280;9663;48.996;8.334;2022-07-10T04:37:21;101024.25;;;21.96
19061;BMP280;9663;48.996;8.334;2022-07-10T04:39:47;101017.53;;;21.91
19061;BMP280;9663;48.996;8.334;2022-07-10T04:42:12;101018.47;;;21.90
19061;BMP280;9663;48.996;8.334;2022-07-10T04:44:38;101017.66;;;21.88
19061;BMP280;9663;48.996;8.334;2022-07-10T04:47:05;101020.25;;;21.88
19061;BMP280;9663;48.996;8.334;2022-07-10T04:49:32;101029.69;;;21.89
19061;BMP280;9663;48.996;8.334;2022-07-10T04:51:58;101030.56;;;21.88
19061;BMP280;9663;48.996;8.334;2022-07-10T04:54:24;101034.91;;;21.87
19061;BMP280;9663;48.996;8.334;2022-07-10T04:56:50;101036.59;;;21.88
19061;BMP280;9663;48.996;8.334;2022-07-10T04:59:16;101036.44;;;21.91
19061;BMP280;9663;48.996;8.334;2022-07-10T05:01:42;101037.06;;;21.98
19061;BMP280;9663;48.996;8.334;2022-07-10T05:04:08;101041.94;;;22.05
19061;BMP280;9663;48.996;8.334;2022-07-10T05:06:34;101045.88;;;22.15
19061;BMP280;9663;48.996;8.334;2022-07-10T05:09:01;101040.56;;;22.20
19061;BMP280;9663;48.996;8.334;2022-07-10T05:11:27;101043.84;;;22.23
19061;BMP280;9663;48.996;8.334;2022-07-10T05:13:52;101047.22;;;22.25
19061;BMP280;9663;48.996;8.334;2022-07-10T05:16:19;101048.03;;;22.26
19061;BMP280;9663;48.996;8.334;2022-07-10T05:18:45;101056.72;;;22.25
19061;BMP280;9663;48.996;8.334;2022-07-10T05:21:11;101048.09;;;22.24
19061;BMP280;9663;48.996;8.334;2022-07-10T05:23:40;101057.56;;;22.25
19061;BMP280;9663;48.996;8.334;2022-07-10T05:26:06;101057.56;;;22.25
19061;BMP280;9663;48.996;8.334;2022-07-10T05:28:32;101048.03;;;22.26
19061;BMP280;9663;48.996;8.334;2022-07-10T05:30:58;101052.31;;;22.27
19061;BMP280;9663;48.996;8.334;2022-07-10T05:33:24;101058.16;;;22.31
19061;BMP280;9663;48.996;8.334;2022-07-10T05:35:52;101062.13;;;22.40
19061;BMP280;9663;48.996;8.334;2022-07-10T05:38:17;101058.97;;;22.53
19061;BMP280;9663;48.996;8.334;2022-07-10T05:40:43;101058.41;;;22.67
19061;BMP280;9663;48.996;8.334;2022-07-10T05:43:09;101057.94;;;22.78
19061;BMP280;9663;48.996;8.334;2022-07-10T05:45:36;101061.03;;;22.86
19061;BMP280;9663;48.996;8.334;2022-07-10T05:48:02;101054.13;;;22.87
19061;BMP280;9663;48.996;8.334;2022-07-10T05:50:28;101061.88;;;22.87
19061;BMP280;9663;48.996;8.334;2022-07-10T05:52:54;101063.53;;;22.88
19061;BMP280;9663;48.996;8.334;2022-07-10T05:55:19;101060.06;;;22.89
19061;BMP280;9663;48.996;8.334;2022-07-10T05:57:45;101060.91;;;22.89
19061;BMP280;9663;48.996;8.334;2022-07-10T06:00:12;101071.25;;;22.89
19061;BMP280;9663;48.996;8.334;2022-07-10T06:02:38;101072.16;;;22.88
19061;BMP280;9663;48.996;8.334;2022-07-10T06:05:05;101079.00;;;22.89
19061;BMP280;9663;48.996;8.334;2022-07-10T06:07:31;101073.84;;;22.89
19061;BMP280;9663;48.996;8.334;2022-07-10T06:09:57;101076.41;;;22.91
19061;BMP280;9663;48.996;8.334;2022-07-10T06:12:22;101080.63;;;22.93
19061;BMP280;9663;48.996;8.334;2022-07-10T06:14:48;101075.44;;;22.93
19061;BMP280;9663;48.996;8.334;2022-07-10T06:17:14;101087.44;;;22.94
19061;BMP280;9663;48.996;8.334;2022-07-10T06:19:40;101093.50;;;22.95
19061;BMP280;9663;48.996;8.334;2022-07-10T06:22:05;101096.63;;;23.01
19061;BMP280;9663;48.996;8.334;2022-07-10T06:24:50;101087.72;;;23.08
19061;BMP280;9663;48.996;8.334;2022-07-10T06:27:16;101088.97;;;23.19
19061;BMP280;9663;48.996;8.334;2022-07-10T06:29:41;101089.38;;;23.29
19061;BMP280;9663;48.996;8.334;2022-07-10T06:32:08;101090.78;;;23.37
19061;BMP280;9663;48.996;8.334;2022-07-10T06:34:34;101099.59;;;23.52
19061;BMP280;9663;48.996;8.334;2022-07-10T06:37:00;101097.34;;;23.64
19061;BMP280;9663;48.996;8.334;2022-07-10T06:39:26;101082.31;;;23.72
19061;BMP280;9663;48.996;8.334;2022-07-10T06:41:52;101098.34;;;23.80
19061;BMP280;9663;48.996;8.334;2022-07-10T06:44:17;101104.88;;;23.88
19061;BMP280;9663;48.996;8.334;2022-07-10T06:46:43;101100.25;;;23.95
19061;BMP280;9663;48.996;8.334;2022-07-10T06:49:29;101104.38;;;23.99
19061;BMP280;9663;48.996;8.334;2022-07-10T06:51:54;101105.00;;;24.03
19061;BMP280;9663;48.996;8.334;2022-07-10T06:54:20;101106.78;;;24.03
19061;BMP280;9663;48.996;8.334;2022-07-10T06:56:46;101092.06;;;24.03
19061;BMP280;9663;48.996;8.334;2022-07-10T06:59:11;101097.09;;;24.06
19061;BMP280;9663;48.996;8.334;2022-07-10T07:01:37;101091.00;;;24.07
19061;BMP280;9663;48.996;8.334;2022-07-10T07:04:03;101098.06;;;24.04
19061;BMP280;9663;48.996;8.334;2022-07-10T07:06:29;101095.78;;;23.98
19061;BMP280;9663;48.996;8.334;2022-07-10T07:08:54;101092.75;;;23.89
19061;BMP280;9663;48.996;8.334;2022-07-10T07:11:20;101100.59;;;23.87
19061;BMP280;9663;48.996;8.334;2022-07-10T07:13:45;101092.38;;;23.78
19061;BMP280;9663;48.996;8.334;2022-07-10T07:16:11;101098.94;;;23.66
19061;BMP280;9663;48.996;8.334;2022-07-10T07:18:43;101099.28;;;23.59
19061;BMP280;9663;48.996;8.334;2022-07-10T07:21:14;101105.41;;;23.57
19061;BMP280;9663;48.996;8.334;2022-07-10T07:23:59;101108.28;;;23.51
19061;BMP280;9663;48.996;8.334;2022-07-10T07:26:24;101104.25;;;23.44
19061;BMP280;9663;48.996;8.334;2022-07-10T07:28:50;101115.78;;;23.37
19061;BMP280;9663;48.996;8.334;2022-07-10T07:31:16;101108.31;;;23.31
19061;BMP280;9663;48.996;8.334;2022-07-10T07:33:43;101104.16;;;23.27
19061;BMP280;9663;48.996;8.334;2022-07-10T07:36:09;101112.75;;;23.27
19061;BMP280;9663;48.996;8.334;2022-07-10T07:38:34;101107.50;;;23.29
19061;BMP280;9663;48.996;8.334;2022-07-10T07:41:03;101120.19;;;23.35
19061;BMP280;9663;48.996;8.334;2022-07-10T07:43:29;101114.78;;;23.41
19061;BMP280;9663;48.996;8.334;2022-07-10T07:45:55;101109.38;;;23.45
19061;BMP280;9663;48.996;8.334;2022-07-10T07:48:22;101118.41;;;23.55
19061;BMP280;9663;48.996;8.334;2022-07-10T07:50:48;101112.53;;;23.71
19061;BMP280;9663;48.996;8.334;2022-07-10T07:53:14;101110.69;;;23.93
19061;BMP280;9663;48.996;8.334;2022-07-10T07:55:39;101106.13;;;24.16
19061;BMP280;9663;48.996;8.334;2022-07-10T07:58:05;101122.41;;;24.38
19061;BMP280;9663;48.996;8.334;2022-07-10T08:00:31;101120.69;;;24.55
19061;BMP280;9663;48.996;8.334;2022-07-10T08:02:58;101112.19;;;24.70
19061;BMP280;9663;48.996;8.334;2022-07-10T08:05:26;101105.25;;;24.88
19061;BMP280;9663;48.996;8.334;2022-07-10T08:07:58;101115.56;;;25.06
19061;BMP280;9663;48.996;8.334;2022-07-10T08:10:32;101095.66;;;25.23
19061;BMP280;9663;48.996;8.334;2022-07-10T08:12:58;101102.59;;;25.39
19061;BMP280;9663;48.996;8.334;2022-07-10T08:15:24;101094.16;;;25.51
19061;BMP280;9663;48.996;8.334;2022-07-10T08:17:55;101084.47;;;26.18
19061;BMP280;9663;48.996;8.334;2022-07-10T08:20:23;101083.91;;;26.13
19061;BMP280;9663;48.996;8.334;2022-07-10T08:22:49;101084.75;;;26.28
19061;BMP280;9663;48.996;8.334;2022-07-10T08:25:15;101081.28;;;26.43
19061;BMP280;9663;48.996;8.334;2022-07-10T08:27:41;101079.69;;;26.56
19061;BMP280;9663;48.996;8.334;2022-07-10T08:30:08;101093.34;;;26.60
19061;BMP280;9663;48.996;8.334;2022-07-10T08:32:36;101085.28;;;26.64
19061;BMP280;9663;48.996;8.334;2022-07-10T08:35:03;101084.88;;;26.71
19061;BMP280;9663;48.996;8.334;2022-07-10T08:37:29;101085.16;;;26.81
19061;BMP280;9663;48.996;8.334;2022-07-10T08:39:55;101088.28;;;26.87
19061;BMP280;9663;48.996;8.334;2022-07-10T08:42:21;101080.41;;;26.73
19061;BMP280;9663;48.996;8.334;2022-07-10T08:44:48;101083.88;;;26.43
19061;BMP280;9663;48.996;8.334;2022-07-10T08:47:14;101084.88;;;26.10
19061;BMP280;9663;48.996;8.334;2022-07-10T08:49:47;101076.50;;;25.90
19061;BMP280;9663;48.996;8.334;2022-07-10T08:52:26;101083.72;;;25.85
19061;BMP280;9663;48.996;8.334;2022-07-10T08:54:56;101083.19;;;25.94
19061;BMP280;9663;48.996;8.334;2022-07-10T08:57:23;101078.25;;;26.05
19061;BMP280;9663;48.996;8.334;2022-07-10T09:02:15;101076.84;;;26.45
19061;BMP280;9663;48.996;8.334;2022-07-10T09:04:41;101080.91;;;26.64
19061;BMP280;9663;48.996;8.334;2022-07-10T09:07:07;101075.19;;;26.73
19061;BMP280;9663;48.996;8.334;2022-07-10T09:09:52;101076.44;;;26.66
19061;BMP280;9663;48.996;8.334;2022-07-10T09:12:20;101081.22;;;26.74
19061;BMP280;9663;48.996;8.334;2022-07-10T09:14:46;101076.94;;;26.88
19061;BMP280;9663;48.996;8.334;2022-07-10T09:17:12;101076.50;;;26.96
19061;BMP280;9663;48.996;8.334;2022-07-10T09:19:39;101084.13;;;26.99
19061;BMP280;9663;48.996;8.334;2022-07-10T09:22:10;101069.00;;;27.05
19061;BMP280;9663;48.996;8.334;2022-07-10T09:24:42;101074.75;;;27.10
19061;BMP280;9663;48.996;8.334;2022-07-10T09:27:09;101072.34;;;27.07
19061;BMP280;9663;48.996;8.334;2022-07-10T09:29:51;101084.22;;;26.97
19061;BMP280;9663;48.996;8.334;2022-07-10T09:32:22;101084.28;;;26.96
19061;BMP280;9663;48.996;8.334;2022-07-10T09:34:50;101093.88;;;26.95
19061;BMP280;9663;48.996;8.334;2022-07-10T09:37:42;101098.78;;;26.86
19061;BMP280;9663;48.996;8.334;2022-07-10T09:40:10;101092.56;;;26.73
19061;BMP280;9663;48.996;8.334;2022-07-10T09:42:39;101093.44;;;26.58
19061;BMP280;9663;48.996;8.334;2022-07-10T09:47:58;101088.41;;;26.40
19061;BMP280;9663;48.996;8.334;2022-07-10T09:50:35;101094.22;;;26.29
19061;BMP280;9663;48.996;8.334;2022-07-10T09:53:07;101095.94;;;26.14
19061;BMP280;9663;48.996;8.334;2022-07-10T09:55:36;101095.97;;;25.98
19061;BMP280;9663;48.996;8.334;2022-07-10T09:58:06;101076.75;;;25.85
19061;BMP280;9663;48.996;8.334;2022-07-10T10:00:34;101080.06;;;25.72
19061;BMP280;9663;48.996;8.334;2022-07-10T10:03:09;101090.09;;;25.63
19061;BMP280;9663;48.996;8.334;2022-07-10T10:05:53;101080.19;;;25.54
19061;BMP280;9663;48.996;8.334;2022-07-10T10:08:43;101073.28;;;25.53
19061;BMP280;9663;48.996;8.334;2022-07-10T10:11:20;101075.81;;;25.54
19061;BMP280;9663;48.996;8.334;2022-07-10T10:13:49;101075.47;;;25.62
19061;BMP280;9663;48.996;8.334;2022-07-10T10:16:19;101102.53;;;25.73
19061;BMP280;9663;48.996;8.334;2022-07-10T10:18:46;101086.03;;;25.74
19061;BMP280;9663;48.996;8.334;2022-07-10T10:21:31;101078.06;;;25.77
19061;BMP280;9663;48.996;8.334;2022-07-10T10:24:00;101069.03;;;25.84
19061;BMP280;9663;48.996;8.334;2022-07-10T10:26:26;101067.84;;;25.89
19061;BMP280;9663;48.996;8.334;2022-07-10T10:28:54;101067.28;;;26.00
19061;BMP280;9663;48.996;8.334;2022-07-10T10:31:22;101064.59;;;26.17
19061;BMP280;9663;48.996;8.334;2022-07-10T10:33:48;101056.31;;;26.25
19061;BMP280;9663;48.996;8.334;2022-07-10T10:39:18;101049.41;;;26.40
19061;BMP280;9663;48.996;8.334;2022-07-10T10:41:52;101043.50;;;26.52
19061;BMP280;9663;48.996;8.334;2022-07-10T10:44:20;101047.66;;;26.69
19061;BMP280;9663;48.996;8.334;2022-07-10T10:47:00;101036.44;;;26.83
19061;BMP280;9663;48.996;8.334;2022-07-10T10:50:00;101046.03;;;26.82
19061;BMP280;9663;48.996;8.334;2022-07-10T10:52:27;101037.91;;;26.88
19061;BMP280;9663;48.996;8.334;2022-07-10T11:00:06;101039.22;;;27.09
19061;BMP280;9663;48.996;8.334;2022-07-10T11:02:35;101044.00;;;27.16
19061;BMP280;9663;48.996;8.334;2022-07-10T11:08:02;101040.09;;;27.79
19061;BMP280;9663;48.996;8.334;2022-07-10T11:13:12;101037.31;;;27.82
19061;BMP280;9663;48.996;8.334;2022-07-10T11:15:47;101029.84;;;27.90
19061;BMP280;9663;48.996;8.334;2022-07-10T11:18:21;101032.41;;;28.03
19061;BMP280;9663;48.996;8.334;2022-07-10T11:20:54;101025.50;;;28.16
19061;BMP280;9663;48.996;8.334;2022-07-10T11:26:29;101026.75;;;28.37
19061;BMP280;9663;48.996;8.334;2022-07-10T11:29:05;101034.00;;;28.58
19061;BMP280;9663;48.996;8.334;2022-07-10T11:31:33;101009.38;;;29.26
19061;BMP280;9663;48.996;8.334;2022-07-10T11:34:10;101009.00;;;30.83
19061;BMP280;9663;48.996;8.334;2022-07-10T11:36:39;101004.72;;;32.75
19061;BMP280;9663;48.996;8.334;2022-07-10T11:39:07;100997.13;;;33.91
19061;BMP280;9663;48.996;8.334;2022-07-10T11:41:42;100993.81;;;34.73
19061;BMP280;9663;48.996;8.334;2022-07-10T11:44:14;100984.38;;;35.62
19061;BMP280;9663;48.996;8.334;2022-07-10T11:46:41;100981.84;;;36.48
19061;BMP280;9663;48.996;8.334;2022-07-10T11:49:10;100995.38;;;37.13
19061;BMP280;9663;48.996;8.334;2022-07-10T11:51:39;100990.78;;;37.48
19061;BMP280;9663;48.996;8.334;2022-07-10T11:54:17;100987.75;;;37.76
19061;BMP280;9663;48.996;8.334;2022-07-10T11:56:52;100981.38;;;38.03
19061;BMP280;9663;48.996;8.334;2022-07-10T11:59:27;100984.69;;;38.36
19061;BMP280;9663;48.996;8.334;2022-07-10T12:01:55;100974.13;;;38.68
19061;BMP280;9663;48.996;8.334;2022-07-10T12:04:24;100977.34;;;39.09
19061;BMP280;9663;48.996;8.334;2022-07-10T12:06:52;100974.63;;;38.63
19061;BMP280;9663;48.996;8.334;2022-07-10T12:09:23;100987.53;;;38.35
19061;BMP280;9663;48.996;8.334;2022-07-10T12:12:01;100983.91;;;38.44
19061;BMP280;9663;48.996;8.334;2022-07-10T12:14:27;100980.91;;;38.62
19061;BMP280;9663;48.996;8.334;2022-07-10T12:16:55;100968.78;;;38.99
19061;BMP280;9663;48.996;8.334;2022-07-10T12:19:36;100964.75;;;39.11
19061;BMP280;9663;48.996;8.334;2022-07-10T12:22:05;100975.44;;;38.88
19061;BMP280;9663;48.996;8.334;2022-07-10T12:24:31;100972.44;;;38.75
19061;BMP280;9663;48.996;8.334;2022-07-10T12:26:57;100969.13;;;38.17
19061;BMP280;9663;48.996;8.334;2022-07-10T12:29:28;100969.47;;;38.14
19061;BMP280;9663;48.996;8.334;2022-07-10T12:32:00;100957.41;;;38.51
19061;BMP280;9663;48.996;8.334;2022-07-10T12:34:39;100950.34;;;39.06
19061;BMP280;9663;48.996;8.334;2022-07-10T12:37:13;100954.84;;;39.51
19061;BMP280;9663;48.996;8.334;2022-07-10T12:39:52;100955.56;;;39.98
19061;BMP280;9663;48.996;8.334;2022-07-10T12:42:30;100956.16;;;40.30
19061;BMP280;9663;48.996;8.334;2022-07-10T12:45:14;100945.72;;;40.65
19061;BMP280;9663;48.996;8.334;2022-07-10T12:47:45;100950.13;;;40.72
19061;BMP280;9663;48.996;8.334;2022-07-10T12:50:13;100958.44;;;40.55
19061;BMP280;9663;48.996;8.334;2022-07-10T12:52:39;100952.06;;;40.64
19061;BMP280;9663;48.996;8.334;2022-07-10T12:55:21;100955.91;;;40.76
19061;BMP280;9663;48.996;8.334;2022-07-10T12:58:08;100948.72;;;40.99
19061;BMP280;9663;48.996;8.334;2022-07-10T13:00:53;100952.09;;;41.21
19061;BMP280;9663;48.996;8.334;2022-07-10T13:03:21;100954.72;;;41.50
19061;BMP280;9663;48.996;8.334;2022-07-10T13:05:50;100946.47;;;41.80
19061;BMP280;9663;48.996;8.334;2022-07-10T13:08:21;100953.81;;;42.13
19061;BMP280;9663;48.996;8.334;2022-07-10T13:10:59;100938.28;;;42.44
19061;BMP280;9663;48.996;8.334;2022-07-10T13:13:27;100942.97;;;42.63
19061;BMP280;9663;48.996;8.334;2022-07-10T13:15:56;100935.53;;;42.31
19061;BMP280;9663;48.996;8.334;2022-07-10T13:18:27;100934.56;;;41.41
19061;BMP280;9663;48.996;8.334;2022-07-10T13:20:55;100935.41;;;40.99
19061;BMP280;9663;48.996;8.334;2022-07-10T13:23:21;100944.75;;;40.95
19061;BMP280;9663;48.996;8.334;2022-07-10T13:25:55;100941.72;;;41.12
19061;BMP280;9663;48.996;8.334;2022-07-10T13:28:21;100936.78;;;41.58
19061;BMP280;9663;48.996;8.334;2022-07-10T13:30:47;100940.78;;;42.04
19061;BMP280;9663;48.996;8.334;2022-07-10T13:33:13;100937.50;;;42.71
19061;BMP280;9663;48.996;8.334;2022-07-10T13:35:40;100931.19;;;42.85
19061;BMP280;9663;48.996;8.334;2022-07-10T13:38:06;100936.63;;;42.97
19061;BMP280;9663;48.996;8.334;2022-07-10T13:40:35;100932.97;;;42.98
19061;BMP280;9663;48.996;8.334;2022-07-10T13:43:02;100931.28;;;43.37
19061;BMP280;9663;48.996;8.334;2022-07-10T13:45:29;100929.50;;;43.51
19061;BMP280;9663;48.996;8.334;2022-07-10T13:47:59;100929.22;;;43.92
19061;BMP280;9663;48.996;8.334;2022-07-10T13:50:25;100927.44;;;44.38
19061;BMP280;9663;48.996;8.334;2022-07-10T13:52:51;100928.44;;;44.56
19061;BMP280;9663;48.996;8.334;2022-07-10T13:55:17;100926.59;;;44.37
19061;BMP280;9663;48.996;8.334;2022-07-10T13:57:43;100930.88;;;43.93
19061;BMP280;9663;48.996;8.334;2022-07-10T14:00:10;100929.75;;;42.82
19061;BMP280;9663;48.996;8.334;2022-07-10T14:02:37;100932.97;;;41.82
19061;BMP280;9663;48.996;8.334;2022-07-10T14:05:03;100930.00;;;40.92
19061;BMP280;9663;48.996;8.334;2022-07-10T14:07:29;100939.81;;;40.19
19061;BMP280;9663;48.996;8.334;2022-07-10T14:09:55;100936.69;;;39.63
19061;BMP280;9663;48.996;8.334;2022-07-10T14:12:21;100931.28;;;39.10
19061;BMP280;9663;48.996;8.334;2022-07-10T14:14:47;100938.50;;;38.62
19061;BMP280;9663;48.996;8.334;2022-07-10T14:17:13;100945.63;;;38.22
19061;BMP280;9663;48.996;8.334;2022-07-10T14:19:39;100941.28;;;37.90
19061;BMP280;9663;48.996;8.334;2022-07-10T14:22:07;100930.41;;;37.52
19061;BMP280;9663;48.996;8.334;2022-07-10T14:24:33;100944.00;;;37.16
19061;BMP280;9663;48.996;8.334;2022-07-10T14:27:00;100933.59;;;36.89
19061;BMP280;9663;48.996;8.334;2022-07-10T14:29:26;100940.59;;;36.73
19061;BMP280;9663;48.996;8.334;2022-07-10T14:31:52;100943.56;;;36.52
19061;BMP280;9663;48.996;8.334;2022-07-10T14:34:18;100937.44;;;36.52
19061;BMP280;9663;48.996;8.334;2022-07-10T14:36:44;100928.94;;;36.40